OFPHANOVER COUNTY MUNI
METARs for airports near OFP, sorted by distance:
N 0 nm 206' KOFP 142154Z 23007KT 10SM CLR 36/20 A2997
SE 13 nm 167' KRIC 142154Z 19009KT 10SM FEW050 35/22 A2996
S 18 nm 236' KFCI 142156Z 21005KT 10SM CLR 34/22 A2998
E 27 nm 135' KXSA 142215Z 17004KT 10SM CLR 34/24 A2998
NW 31 nm 493' KLKU 142215Z 13003KT 10SM SCT100 33/21 A2998
S 31 nm 192' KPTB 142215Z 15003KT 10SM CLR 33/23 A2999
N 33 nm 85' KEZF 142215Z 00000KT 10SM CLR 35/18 A2995
E 33 nm 20' KFYJ 142215Z 00000KT 5SM CLR 33/24 A2997
N 41 nm 219' KRMN 142215Z 21005KT 10SM CLR 35/14 A2996
NW 43 nm 464' KOMH 142215Z 17003KT 10SM CLR 33/20 A2999
NW 43 nm 454' KGVE 142215Z 00000KT 10SM CLR 34/21 A2997
SW 45 nm 437' KBKT 142155Z 22005KT 10SM CLR 34/22 A2998
SE 48 nm 111' KAKQ 142154Z 23006KT 9SM CLR 34/24 A2998
N 48 nm 10' KNYG 142156Z 5SM CLR 36/21 A2995
SW 52 nm 415' KFVX 142215Z 19006KT 10SM CLR 33/22 A2997
SE 52 nm 11' KFAF 130055Z 17007KT 5SM RA OVC035 23/22 A3018
NW 52 nm 315' KCJR 142215Z 17005KT 10SM CLR 35/17 A2997
N 54 nm 336' KHWY 142215Z 18005KT 10SM CLR 35/17 A2996
NW 54 nm 640' KCHO 142153Z 16005KT 10SM BKN090 33/19 A2997
SE 56 nm 42' KPHF 142154Z 23006KT 10SM CLR 34/23 A2998
S 58 nm 328' KLVL 142215Z 00000KT 10SM CLR 35/24 A3000
NE 59 nm 38' KNHK 142152Z 13007KT 10SM SCT050 BKN240 33/25 A2995
N 60 nm 192' KHEF 142156Z 21007KT 10SM CLR 35/19 A2996
S 61 nm 126' KEMV 142215Z 00000KT 10SM CLR 33/24 A3000
N 61 nm 73' KDAA 142155Z 18005KT 10SM CLR 36/17 A2992
SE 63 nm 8' KLFI 142155Z 12007KT 10SM CLR 32/25 A2997
SE 65 nm 40' KFKN 142215Z 17008G15KT 10SM CLR 30/23 A3002
SW 68 nm 441' KAVC 142215Z 00000KT 10SM CLR 35/22 A3005
E 68 nm 5' KTGI 142035Z 16010G14KT 10SM CLR 32/24 A2999
N 71 nm 14' KDCA 142152Z 20007KT 10SM FEW080 FEW250 37/17 A2993
N 71 nm 279' KADW 142155Z 13010KT 10SM CLR 31/21 A2993
SE 71 nm 14' KNGU 142159Z 18004KT 9SM SCT050 SCT250 34/24 A3000
SE 72 nm 28' KPVG 142156Z 10SM CLR 33/24 A3001
SE 73 nm 70' KSFQ 142215Z 16005KT 10SM CLR 29/22 A3003
N 74 nm 312' KIAD 142152Z 21010KT 10SM FEW090 FEW140 35/18 A2995
SW 75 nm 503' KCXE 142215Z 16003KT 10SM CLR 34/22 A3000
NW 76 nm 902' KLUA 142215Z 00000KT 10SM 36/17 A2998
SE 76 nm 26' KORF 142151Z 23007KT 10SM FEW042 FEW090 33/23 A2997
NW 76 nm 1201' KSHD 142215Z 23008KT 10SM SCT090 35/16 A3002
E 79 nm 47' KMFV 142215Z 16005KT 10SM CLR A2999
N 80 nm 48' KCGS 142205Z 12006KT 10SM CLR 33/23 A2995
NW 82 nm 1165' KVBW 142215Z 25006KT 10SM SCT120 34/16 A2999
NW 82 nm 703' KFRR 142215Z 18005KT SCT100 35/17 A2996
SE 82 nm 18' KCPK 142215Z 22010G14KT 10SM SCT032 30/22 A3002
N 82 nm 389' KJYO 142215Z 21006KT 170V230 10SM SCT100 SCT120 36/21 A2996
NE 83 nm 19' KCGE 142205Z 00000KT 10SM SCT055 30/24 A2996
S 83 nm 144' KIXA 142210Z 22010KT 10SM SCT055 32/26 A2999
SE 85 nm 21' KNTU 142156Z 18008KT 10SM FEW040 SCT250 32/26 A2998
S 85 nm 66' KASJ 142205Z 06004KT 10SM SCT013 BKN060 OVC070 26/23 A3000
W 87 nm 938' KLYH 142154Z VRB04KT 10SM SCT095 36/17 A3001
TAFs for airports near OFP, sorted by distance:
SE 13 nm 167' KRIC KRIC 141722Z 1418/1518 19008KT P6SM SCT060
  FM142300 22005KT P6SM SKC
N 48 nm 10' KNYG TAF KNYG 1321/1421 VRB06KT 9999 SKC QNH3005INS
  FM140600 VRB06KT 9999 SCT200 QNH2995INS LAST NO
  AMDS AFT 1321 NEXT 1509 AUTOMATED SENSOR METWATCH 1321 TIL 1511 T32/1321Z T22/1411Z
SE 52 nm 11' KFAF TAF KFAF 121800Z 1218/1324 18009KT 6000 -SHRA BR VCTS BKN025CB BKN040 OVC060 QNH3006INS
  TEMPO 1218/1223 VRB12G18KT 8000 -TSRA SCT015CB BKN020 OVC035
  BECMG 1223/1224 16006KT 8000 -SHRA BR BKN022 OVC034 QNH3007INS TX28/1318Z TN24/1308Z
NW 54 nm 640' KCHO TAF
  AMD KCHO 142008Z 1420/1518 16008G16KT P6SM FEW250
  FM150000 00000KT P6SM FEW250
  FM150500 18005KT P6SM FEW250
  FM151600 26003KT P6SM FEW200
SE 56 nm 42' KPHF KPHF 141722Z 1418/1518 22007KT P6SM SCT060
  FM142300 22005KT P6SM SKC
NE 59 nm 38' KNHK TAF KNHK 1415/1515 VRB06KT 9999 FEW030 FEW100 QNH2995INS
  FM141700 15008KT 9999 VCTS FEW040CB SCT060 SCT070 QNH2993INS
  BECMG 1504/1506 23008KT 9999 NSW FEW060 FEW080 QNH2989INS TX32/1418Z TN26/1509Z FN00268
N 61 nm 73' KDAA TAF KDAA 121200Z 1212/1318 VRB05KT 9999 VCSH SCT030 BKN060 OVC100 QNH2996INS
  BECMG 1212/1213 03006KT 9000 -SHRA FEW015 BKN030 OVC070 QNH3000INS
  BECMG 1213/1214 04007KT 8000 -SHRA VCTS SCT015CB OVC030 QNH3011INS
  TEMPO 1214/1301 VRB12G20KT 4800 TSRA BR SCT008 OVC015CB
  BECMG 1302/1303 VRB06KT 9000 -RA OVC010 QNH3010INS
  BECMG 1306/1307 VRB05KT 4800 -RA BR OVC008 QNH3011INS
  BECMG 1312/1313 16007KT 8000 -SHRA VCTS SCT009 BKN015CB OVC030 QNH3012INS TX27/1220Z TN24/1310Z
SE 63 nm 8' KLFI TAF
  AMD KLFI 141405Z 1414/1517 VRB06KT 9999 FEW095 QNH3006INS
  BECMG 1416/1417 VRB06KT 9999 NSW FEW085 SCT120 QNH2992INS TX33/1417Z TN31/1414Z LAST NO
  AMDS AFT 1414 NEXT 1509
N 71 nm 14' KDCA KDCA 142102Z 1421/1524 21008G16KT P6SM VCTS SCT060CB SCT250
  FM142200 08008G16KT P6SM FEW200
  FM150500 17005KT P6SM FEW200
  FM151600 26005KT P6SM FEW200
N 71 nm 279' KADW TAF
  AMD KADW 141910Z 1419/1523 27012KT 9999 VCTS SCT050CB QNH2997INS
  TEMPO 1419/1421 29012G18KT 8000 -TSRA BKN050CB
  BECMG 1420/1421 22006KT 9999 NSW SCT050 QNH2994INS
  BECMG 1500/1501 17006KT 9999 FEW070 QNH2992INS
  BECMG 1506/1507 26006KT 9999 SCT060 SCT250 QNH2986INS
  BECMG 1518/1519 23012KT 9999 -SHRA VCTS BKN040CB QNH2983INS TX38/1419Z TN23/1509Z
SE 71 nm 14' KNGU TAF KNGU 1415/1515 27006KT 9999 FEW030 FEW070 QNH2998INS
  BECMG 1419/1421 15010KT 9999 VCTS FEW035CB SCT050 SCT060 QNH2994INS
  BECMG 1503/1505 22008KT 9999 NSW FEW030 SCT040 QNH2993INS TX31/1418Z TN26/1509Z FN00268
N 74 nm 312' KIAD KIAD 142102Z 1421/1524 23009KT P6SM FEW250
  FM142300 21005KT P6SM FEW250
  FM150300 18004KT P6SM FEW250
  FM151600 26005KT P6SM FEW250
SE 76 nm 26' KORF KORF 141722Z 1418/1518 06006KT P6SM SCT060
  FM142100 15008KT P6SM FEW060
  FM150300 22009KT P6SM SKC
SE 85 nm 21' KNTU TAF KNTU 1415/1515 VRB04KT 9999 FEW035 FEW200 QNH2999INS
  FM142100 15009KT 9999 VCTS FEW030CB SCT060 QNH2996INS
  BECMG 1504/1506 20008KT 9999 NSW FEW030 SCT040 QNH2993INS TX30/1418Z TN25/1509Z FN00268
W 87 nm 938' KLYH TAF KLYH 141720Z 1418/1518 26005KT P6SM SCT060
  FM142300 VRB02KT P6SM FEW250

Shortcut to this page: http://wxbay.com.

Data may contain errors.